Curtis Field
KBBD : now visible

Airfield :











YOU CAN JOIN US ON...

 
LOGIN :

Register | Disclaimer

   EN    FR    IT 

 









Legend :    VFR   Marginal VFR   IFR   Intensive IFR   Very Intensive IFR
Visi :
Ceiling :
>= 8 km
>= 3000ft
5 to 8 km
1000 to 3000 ft
1500m to 5 km
500 to 1000 ft
800 to 1500m
200 to 500 ft
< 800m
< 200 ft
Symbols :   Thunderstorms  Fog  Heavy snow  Heavy precipitations  Wind > 20 kt






- Airport Elevation : 1827 ft


KBBD - Curtis Field

CURRENT METAR :
  • 172035Z AUTO 24010G17KT 10SM CLR 28/06 A2978 RMK AO2

EXPIRED METARs :
  • 172015Z AUTO 23011KT 10SM CLR 27/08 A2978 RMK AO2
  • 171955Z AUTO 24011KT 10SM CLR 26/08 A2979 RMK AO2
  • 171935Z AUTO 24009KT 10SM CLR 26/10 A2981 RMK AO2
  • 171915Z AUTO 24012KT 10SM CLR 25/10 A2982 RMK AO2
  • 171855Z AUTO 21010KT 10SM CLR 24/12 A2984 RMK AO2
  • 171835Z AUTO 21011G17KT 10SM CLR 24/12 A2985 RMK AO2
  • 171815Z AUTO 21014KT 10SM CLR 23/13 A2986 RMK AO2
  • 171755Z AUTO 21009KT 10SM CLR 22/14 A2987 RMK AO2

TAF KBBD
Valid from the 17 at 18:00 until the 18 at 18:00 UTC


171738Z 1718/1818 21011KT P6SM FEW250
FM180600 01005KT P6SM OVC250
FM181000 35009KT P6SM BKN015
FM181200 VRB04KT 4SM BR BKN007
FM181600 36015G24KT P6SM OVC015



MET'MAP, your aeronautical weather chart ! - Copyright ORBIFLY December 2007 - Disclaimer

ORBIFLY MET'MAP TEAM :

Programming & Development : Alexandra Zaïnal
Concept & original design : Baudouin d'Aumeries
Assistance for programming : Marc-Olivier Méhu
Technical & hardware support : Manuel Goepfert

Contact : metmap@orbifly.com




SOURCES & CREDITS :

   NOAA       Earth
Advisory